Aeroporto :







RITROVATECI SU...

 
LOGIN :

Iscrizione | Disclaimer

   EN    FR    IT 

 









Sommario :    VFR   VFR Marginale   IFR   IFR Intensivo   IFR Molto Intensivo
Visibilità : 
Base nubi : 
>= 8 km
>= 3000ft
5 / 8 km
1000 / 3000 ft
1500m / 5 km
500 / 1000 ft
800 / 1500m
200 / 500 ft
< 800m
< 200 ft
Simboli :   Temporali  Nebbia  Neve Forte  Precipitazioni Forti  Vento > 20 kt






- Altitudine del aeroporto : 626 ft


KCAR - Caribou Municipal

ULTIMO METAR :
  • 281154Z AUTO 26003KT 10SM CLR M01/M07 A3005 RMK AO2 SLP188 70001 T10061067 11006 21022 51024

METARs OBSOLETI :
  • 281054Z AUTO 30004KT 10SM CLR M02/M07 A3004 RMK AO2 SLP183 T10171067
  • 280954Z AUTO 31008KT 10SM CLR M02/M07 A3001 RMK AO2 SLP173 T10171067

TAF KCAR
Valido dal 28 a 12 ore il 29 a 12 ore UTC


281120Z 2812/2912 31006KT P6SM SKC
FM282100 23003KT P6SM SKC
FM290000 00000KT P6SM FEW200



MetMap, La meteo Aeronautica in un colpo d'occhio ! - Copyright ORBIFLY Dicembre 2007 - Disclaimer

ORBIFLY MET'MAP TEAM :

Programmazione e sviluppo : Alexandra Zaïnal
Concezione : Baudouin d'Aumeries
Aiuto per la programmazione : Marc-Olivier Méhu
Supporto tecnico e logistico : Manuel Goepfert
Aiuto per la traduzione : Arnaldo La Scala

Contatto : metmap@orbifly.com




FONTI E CREDITI :

   NOAA